sensor_id;sensor_type;location;lat;lon;timestamp;P1;durP1;ratioP1;P2;durP2;ratioP2
56122;SDS011;42426;46.104;19.656;2023-05-29T00:00:37;5.18;;;4.68;;
56122;SDS011;42426;46.104;19.656;2023-05-29T00:03:03;7.13;;;5.13;;
56122;SDS011;42426;46.104;19.656;2023-05-29T00:05:30;5.85;;;4.80;;
56122;SDS011;42426;46.104;19.656;2023-05-29T00:07:55;8.85;;;5.55;;
56122;SDS011;42426;46.104;19.656;2023-05-29T00:10:21;8.55;;;5.40;;
56122;SDS011;42426;46.104;19.656;2023-05-29T00:12:47;6.32;;;5.18;;
56122;SDS011;42426;46.104;19.656;2023-05-29T00:15:13;7.75;;;5.55;;
56122;SDS011;42426;46.104;19.656;2023-05-29T00:17:38;5.95;;;4.57;;
56122;SDS011;42426;46.104;19.656;2023-05-29T00:20:05;15.45;;;7.25;;
56122;SDS011;42426;46.104;19.656;2023-05-29T00:22:35;7.10;;;4.95;;
56122;SDS011;42426;46.104;19.656;2023-05-29T00:25:04;8.57;;;5.10;;
56122;SDS011;42426;46.104;19.656;2023-05-29T00:27:30;7.20;;;4.95;;
56122;SDS011;42426;46.104;19.656;2023-05-29T00:29:58;9.60;;;5.43;;
56122;SDS011;42426;46.104;19.656;2023-05-29T00:32:24;6.72;;;4.88;;
56122;SDS011;42426;46.104;19.656;2023-05-29T00:34:50;8.82;;;4.95;;
56122;SDS011;42426;46.104;19.656;2023-05-29T00:37:16;6.03;;;4.70;;
56122;SDS011;42426;46.104;19.656;2023-05-29T00:39:42;8.23;;;5.38;;
56122;SDS011;42426;46.104;19.656;2023-05-29T00:42:08;10.02;;;5.00;;
56122;SDS011;42426;46.104;19.656;2023-05-29T00:44:34;6.93;;;5.10;;
56122;SDS011;42426;46.104;19.656;2023-05-29T00:47:00;6.65;;;5.28;;
56122;SDS011;42426;46.104;19.656;2023-05-29T00:49:27;7.82;;;5.47;;
56122;SDS011;42426;46.104;19.656;2023-05-29T00:51:53;6.18;;;5.53;;
56122;SDS011;42426;46.104;19.656;2023-05-29T00:54:26;7.03;;;5.65;;
56122;SDS011;42426;46.104;19.656;2023-05-29T00:56:53;5.53;;;4.65;;
56122;SDS011;42426;46.104;19.656;2023-05-29T00:59:20;6.97;;;5.53;;
56122;SDS011;42426;46.104;19.656;2023-05-29T01:01:48;8.93;;;5.38;;
56122;SDS011;42426;46.104;19.656;2023-05-29T01:04:16;7.43;;;5.57;;
56122;SDS011;42426;46.104;19.656;2023-05-29T01:06:42;8.52;;;6.18;;
56122;SDS011;42426;46.104;19.656;2023-05-29T01:09:09;8.75;;;5.07;;
56122;SDS011;42426;46.104;19.656;2023-05-29T01:11:57;9.32;;;5.45;;
56122;SDS011;42426;46.104;19.656;2023-05-29T01:17:12;8.63;;;5.93;;
56122;SDS011;42426;46.104;19.656;2023-05-29T01:20:50;8.93;;;5.53;;
56122;SDS011;42426;46.104;19.656;2023-05-29T01:28:27;10.38;;;5.10;;
56122;SDS011;42426;46.104;19.656;2023-05-29T01:30:57;7.45;;;5.55;;
56122;SDS011;42426;46.104;19.656;2023-05-29T01:33:26;8.95;;;5.45;;
56122;SDS011;42426;46.104;19.656;2023-05-29T01:35:52;8.63;;;6.32;;
56122;SDS011;42426;46.104;19.656;2023-05-29T01:38:18;6.35;;;5.65;;
56122;SDS011;42426;46.104;19.656;2023-05-29T01:40:44;8.35;;;5.05;;
56122;SDS011;42426;46.104;19.656;2023-05-29T01:43:10;7.07;;;5.10;;
56122;SDS011;42426;46.104;19.656;2023-05-29T01:45:38;6.72;;;5.25;;
56122;SDS011;42426;46.104;19.656;2023-05-29T01:48:04;7.40;;;5.55;;
56122;SDS011;42426;46.104;19.656;2023-05-29T01:50:31;7.22;;;5.03;;
56122;SDS011;42426;46.104;19.656;2023-05-29T01:52:57;6.88;;;5.50;;
56122;SDS011;42426;46.104;19.656;2023-05-29T01:55:23;7.95;;;5.82;;
56122;SDS011;42426;46.104;19.656;2023-05-29T01:57:49;7.57;;;5.25;;
56122;SDS011;42426;46.104;19.656;2023-05-29T02:00:16;6.70;;;5.90;;
56122;SDS011;42426;46.104;19.656;2023-05-29T02:02:44;7.95;;;5.47;;
56122;SDS011;42426;46.104;19.656;2023-05-29T02:05:09;7.65;;;5.55;;
56122;SDS011;42426;46.104;19.656;2023-05-29T02:07:36;10.43;;;5.80;;
56122;SDS011;42426;46.104;19.656;2023-05-29T02:10:02;7.28;;;5.20;;
56122;SDS011;42426;46.104;19.656;2023-05-29T02:12:29;10.40;;;5.85;;
56122;SDS011;42426;46.104;19.656;2023-05-29T02:14:54;8.35;;;5.70;;
56122;SDS011;42426;46.104;19.656;2023-05-29T02:17:21;8.65;;;5.05;;
56122;SDS011;42426;46.104;19.656;2023-05-29T02:19:47;8.05;;;5.68;;
56122;SDS011;42426;46.104;19.656;2023-05-29T02:22:13;8.40;;;6.32;;
56122;SDS011;42426;46.104;19.656;2023-05-29T02:24:38;6.93;;;5.53;;
56122;SDS011;42426;46.104;19.656;2023-05-29T02:27:04;9.75;;;6.20;;
56122;SDS011;42426;46.104;19.656;2023-05-29T02:29:30;7.43;;;5.45;;
56122;SDS011;42426;46.104;19.656;2023-05-29T02:31:56;7.30;;;5.82;;
56122;SDS011;42426;46.104;19.656;2023-05-29T02:34:21;6.68;;;5.70;;
56122;SDS011;42426;46.104;19.656;2023-05-29T02:36:48;7.88;;;5.63;;
56122;SDS011;42426;46.104;19.656;2023-05-29T02:39:14;8.30;;;5.72;;
56122;SDS011;42426;46.104;19.656;2023-05-29T02:41:40;6.47;;;5.05;;
56122;SDS011;42426;46.104;19.656;2023-05-29T02:44:05;7.03;;;6.05;;
56122;SDS011;42426;46.104;19.656;2023-05-29T02:46:31;6.85;;;5.22;;
56122;SDS011;42426;46.104;19.656;2023-05-29T02:48:57;7.43;;;5.45;;
56122;SDS011;42426;46.104;19.656;2023-05-29T02:51:22;8.10;;;5.82;;
56122;SDS011;42426;46.104;19.656;2023-05-29T02:53:48;8.98;;;5.72;;
56122;SDS011;42426;46.104;19.656;2023-05-29T02:56:14;6.70;;;5.35;;
56122;SDS011;42426;46.104;19.656;2023-05-29T02:58:40;6.65;;;5.47;;
56122;SDS011;42426;46.104;19.656;2023-05-29T03:01:06;7.65;;;5.93;;
56122;SDS011;42426;46.104;19.656;2023-05-29T03:03:32;7.95;;;5.80;;
56122;SDS011;42426;46.104;19.656;2023-05-29T03:05:58;6.90;;;5.60;;
56122;SDS011;42426;46.104;19.656;2023-05-29T03:08:25;6.50;;;5.43;;
56122;SDS011;42426;46.104;19.656;2023-05-29T03:10:53;7.30;;;5.60;;
56122;SDS011;42426;46.104;19.656;2023-05-29T03:13:19;7.72;;;5.50;;
56122;SDS011;42426;46.104;19.656;2023-05-29T03:15:45;8.88;;;5.78;;
56122;SDS011;42426;46.104;19.656;2023-05-29T03:18:11;10.07;;;6.38;;
56122;SDS011;42426;46.104;19.656;2023-05-29T03:20:36;7.25;;;5.90;;
56122;SDS011;42426;46.104;19.656;2023-05-29T03:23:02;7.15;;;5.60;;
56122;SDS011;42426;46.104;19.656;2023-05-29T03:25:28;6.80;;;6.10;;
56122;SDS011;42426;46.104;19.656;2023-05-29T03:27:54;8.38;;;5.85;;
56122;SDS011;42426;46.104;19.656;2023-05-29T03:30:20;7.00;;;6.07;;
56122;SDS011;42426;46.104;19.656;2023-05-29T03:32:46;8.38;;;6.05;;
56122;SDS011;42426;46.104;19.656;2023-05-29T03:35:12;7.63;;;5.93;;
56122;SDS011;42426;46.104;19.656;2023-05-29T03:37:37;7.05;;;6.13;;
56122;SDS011;42426;46.104;19.656;2023-05-29T03:40:03;8.05;;;6.20;;
56122;SDS011;42426;46.104;19.656;2023-05-29T03:42:29;9.95;;;6.78;;
56122;SDS011;42426;46.104;19.656;2023-05-29T03:44:56;9.23;;;6.20;;
56122;SDS011;42426;46.104;19.656;2023-05-29T03:47:22;10.15;;;6.55;;
56122;SDS011;42426;46.104;19.656;2023-05-29T03:49:48;8.55;;;6.07;;
56122;SDS011;42426;46.104;19.656;2023-05-29T03:52:14;7.97;;;5.97;;
56122;SDS011;42426;46.104;19.656;2023-05-29T03:54:40;8.98;;;6.15;;
56122;SDS011;42426;46.104;19.656;2023-05-29T03:57:05;9.73;;;6.30;;
56122;SDS011;42426;46.104;19.656;2023-05-29T03:59:32;9.48;;;6.43;;
56122;SDS011;42426;46.104;19.656;2023-05-29T04:01:58;10.93;;;7.20;;
56122;SDS011;42426;46.104;19.656;2023-05-29T04:04:23;7.22;;;6.00;;
56122;SDS011;42426;46.104;19.656;2023-05-29T04:06:49;10.43;;;7.65;;
56122;SDS011;42426;46.104;19.656;2023-05-29T04:09:15;11.75;;;7.43;;
56122;SDS011;42426;46.104;19.656;2023-05-29T04:11:41;7.82;;;6.65;;
56122;SDS011;42426;46.104;19.656;2023-05-29T04:14:09;8.18;;;5.50;;
56122;SDS011;42426;46.104;19.656;2023-05-29T04:16:35;10.50;;;6.35;;
56122;SDS011;42426;46.104;19.656;2023-05-29T04:19:01;9.35;;;6.35;;
56122;SDS011;42426;46.104;19.656;2023-05-29T04:21:26;8.45;;;5.65;;
56122;SDS011;42426;46.104;19.656;2023-05-29T04:23:52;7.53;;;5.88;;
56122;SDS011;42426;46.104;19.656;2023-05-29T04:26:19;7.28;;;5.32;;
56122;SDS011;42426;46.104;19.656;2023-05-29T04:28:50;6.55;;;5.68;;
56122;SDS011;42426;46.104;19.656;2023-05-29T04:31:22;10.57;;;5.97;;
56122;SDS011;42426;46.104;19.656;2023-05-29T04:33:50;7.90;;;5.78;;
56122;SDS011;42426;46.104;19.656;2023-05-29T04:36:20;8.00;;;5.90;;
56122;SDS011;42426;46.104;19.656;2023-05-29T04:38:51;7.90;;;6.03;;
56122;SDS011;42426;46.104;19.656;2023-05-29T04:41:19;7.72;;;5.45;;
56122;SDS011;42426;46.104;19.656;2023-05-29T04:43:48;8.52;;;6.05;;
56122;SDS011;42426;46.104;19.656;2023-05-29T04:46:16;8.60;;;6.05;;
56122;SDS011;42426;46.104;19.656;2023-05-29T04:48:42;9.07;;;5.53;;
56122;SDS011;42426;46.104;19.656;2023-05-29T04:51:09;10.68;;;6.18;;
56122;SDS011;42426;46.104;19.656;2023-05-29T04:53:38;8.15;;;5.55;;
56122;SDS011;42426;46.104;19.656;2023-05-29T04:56:07;9.77;;;6.03;;
56122;SDS011;42426;46.104;19.656;2023-05-29T04:58:34;8.43;;;6.20;;
56122;SDS011;42426;46.104;19.656;2023-05-29T05:00:59;8.48;;;5.47;;
56122;SDS011;42426;46.104;19.656;2023-05-29T05:03:28;9.27;;;5.68;;
56122;SDS011;42426;46.104;19.656;2023-05-29T05:05:55;10.50;;;6.53;;
56122;SDS011;42426;46.104;19.656;2023-05-29T05:08:22;8.93;;;5.43;;
56122;SDS011;42426;46.104;19.656;2023-05-29T05:10:48;9.48;;;6.63;;
56122;SDS011;42426;46.104;19.656;2023-05-29T05:13:14;9.43;;;6.05;;
56122;SDS011;42426;46.104;19.656;2023-05-29T05:15:39;8.93;;;5.80;;
56122;SDS011;42426;46.104;19.656;2023-05-29T05:18:05;9.02;;;5.95;;
56122;SDS011;42426;46.104;19.656;2023-05-29T05:20:31;7.00;;;5.32;;
56122;SDS011;42426;46.104;19.656;2023-05-29T05:22:56;7.72;;;5.35;;
56122;SDS011;42426;46.104;19.656;2023-05-29T05:25:22;6.93;;;5.50;;
56122;SDS011;42426;46.104;19.656;2023-05-29T05:27:48;7.68;;;5.18;;
56122;SDS011;42426;46.104;19.656;2023-05-29T05:30:14;10.65;;;5.78;;
56122;SDS011;42426;46.104;19.656;2023-05-29T05:32:39;9.98;;;4.90;;
56122;SDS011;42426;46.104;19.656;2023-05-29T05:35:05;6.03;;;5.07;;
56122;SDS011;42426;46.104;19.656;2023-05-29T05:37:32;8.35;;;4.97;;
56122;SDS011;42426;46.104;19.656;2023-05-29T05:39:58;6.57;;;4.90;;
56122;SDS011;42426;46.104;19.656;2023-05-29T05:42:25;11.82;;;6.25;;
56122;SDS011;42426;46.104;19.656;2023-05-29T05:44:51;7.00;;;5.18;;
56122;SDS011;42426;46.104;19.656;2023-05-29T05:47:17;6.53;;;5.63;;
56122;SDS011;42426;46.104;19.656;2023-05-29T05:49:43;7.00;;;4.60;;
56122;SDS011;42426;46.104;19.656;2023-05-29T05:52:08;7.47;;;6.00;;
56122;SDS011;42426;46.104;19.656;2023-05-29T05:54:34;7.80;;;5.40;;
56122;SDS011;42426;46.104;19.656;2023-05-29T05:57:00;7.28;;;5.20;;
56122;SDS011;42426;46.104;19.656;2023-05-29T05:59:25;9.32;;;5.60;;
56122;SDS011;42426;46.104;19.656;2023-05-29T06:01:51;8.95;;;5.28;;
56122;SDS011;42426;46.104;19.656;2023-05-29T06:04:17;8.75;;;5.80;;
56122;SDS011;42426;46.104;19.656;2023-05-29T06:06:43;9.13;;;5.85;;
56122;SDS011;42426;46.104;19.656;2023-05-29T06:09:09;10.30;;;6.32;;
56122;SDS011;42426;46.104;19.656;2023-05-29T06:11:36;10.73;;;5.90;;
56122;SDS011;42426;46.104;19.656;2023-05-29T06:14:03;12.32;;;5.55;;
56122;SDS011;42426;46.104;19.656;2023-05-29T06:16:28;8.88;;;6.07;;
56122;SDS011;42426;46.104;19.656;2023-05-29T06:18:54;7.75;;;6.10;;
56122;SDS011;42426;46.104;19.656;2023-05-29T06:21:20;8.93;;;6.32;;
56122;SDS011;42426;46.104;19.656;2023-05-29T06:23:46;9.32;;;6.35;;
56122;SDS011;42426;46.104;19.656;2023-05-29T06:26:12;12.18;;;7.25;;
56122;SDS011;42426;46.104;19.656;2023-05-29T06:28:38;7.93;;;6.43;;
56122;SDS011;42426;46.104;19.656;2023-05-29T06:31:04;7.60;;;6.35;;
56122;SDS011;42426;46.104;19.656;2023-05-29T06:33:30;9.15;;;6.15;;
56122;SDS011;42426;46.104;19.656;2023-05-29T06:35:55;8.23;;;6.28;;
56122;SDS011;42426;46.104;19.656;2023-05-29T06:38:21;6.85;;;5.22;;
56122;SDS011;42426;46.104;19.656;2023-05-29T06:40:47;9.95;;;7.10;;
56122;SDS011;42426;46.104;19.656;2023-05-29T06:43:12;7.65;;;5.53;;
56122;SDS011;42426;46.104;19.656;2023-05-29T06:45:38;8.60;;;5.68;;
56122;SDS011;42426;46.104;19.656;2023-05-29T06:48:04;8.25;;;5.40;;
56122;SDS011;42426;46.104;19.656;2023-05-29T06:50:30;10.93;;;6.28;;
56122;SDS011;42426;46.104;19.656;2023-05-29T06:52:56;7.63;;;5.15;;
56122;SDS011;42426;46.104;19.656;2023-05-29T06:55:22;7.68;;;4.97;;
56122;SDS011;42426;46.104;19.656;2023-05-29T06:57:48;8.02;;;5.35;;
56122;SDS011;42426;46.104;19.656;2023-05-29T07:00:13;6.90;;;4.90;;
56122;SDS011;42426;46.104;19.656;2023-05-29T07:02:40;10.80;;;5.20;;
56122;SDS011;42426;46.104;19.656;2023-05-29T07:05:06;7.03;;;5.43;;
56122;SDS011;42426;46.104;19.656;2023-05-29T07:07:32;6.75;;;5.45;;
56122;SDS011;42426;46.104;19.656;2023-05-29T07:09:58;8.82;;;5.75;;
56122;SDS011;42426;46.104;19.656;2023-05-29T07:12:24;6.63;;;5.63;;
56122;SDS011;42426;46.104;19.656;2023-05-29T07:14:50;9.18;;;6.07;;
56122;SDS011;42426;46.104;19.656;2023-05-29T07:17:16;8.52;;;5.85;;
56122;SDS011;42426;46.104;19.656;2023-05-29T07:19:42;6.32;;;5.25;;
56122;SDS011;42426;46.104;19.656;2023-05-29T07:22:09;8.45;;;5.93;;
56122;SDS011;42426;46.104;19.656;2023-05-29T07:24:35;7.40;;;5.85;;
56122;SDS011;42426;46.104;19.656;2023-05-29T07:27:01;7.88;;;5.97;;
56122;SDS011;42426;46.104;19.656;2023-05-29T07:29:28;9.43;;;5.93;;
56122;SDS011;42426;46.104;19.656;2023-05-29T07:31:54;12.75;;;6.07;;
56122;SDS011;42426;46.104;19.656;2023-05-29T07:34:20;9.02;;;7.28;;
56122;SDS011;42426;46.104;19.656;2023-05-29T07:36:56;10.48;;;6.10;;
56122;SDS011;42426;46.104;19.656;2023-05-29T07:39:23;9.00;;;6.03;;
56122;SDS011;42426;46.104;19.656;2023-05-29T07:41:49;7.57;;;6.07;;
56122;SDS011;42426;46.104;19.656;2023-05-29T07:44:16;7.15;;;5.47;;
56122;SDS011;42426;46.104;19.656;2023-05-29T07:46:42;7.88;;;5.30;;
56122;SDS011;42426;46.104;19.656;2023-05-29T07:49:08;11.05;;;8.57;;
56122;SDS011;42426;46.104;19.656;2023-05-29T07:51:34;8.32;;;6.72;;
56122;SDS011;42426;46.104;19.656;2023-05-29T07:54:00;9.05;;;6.82;;
56122;SDS011;42426;46.104;19.656;2023-05-29T07:56:26;8.43;;;5.82;;
56122;SDS011;42426;46.104;19.656;2023-05-29T07:58:52;6.80;;;5.32;;
56122;SDS011;42426;46.104;19.656;2023-05-29T08:01:20;8.95;;;6.18;;
56122;SDS011;42426;46.104;19.656;2023-05-29T08:03:48;7.95;;;6.43;;
56122;SDS011;42426;46.104;19.656;2023-05-29T08:06:14;6.80;;;5.57;;
56122;SDS011;42426;46.104;19.656;2023-05-29T08:08:40;7.57;;;5.35;;
56122;SDS011;42426;46.104;19.656;2023-05-29T08:11:06;7.85;;;5.53;;
56122;SDS011;42426;46.104;19.656;2023-05-29T08:13:32;8.48;;;5.88;;
56122;SDS011;42426;46.104;19.656;2023-05-29T08:15:58;7.68;;;5.70;;
56122;SDS011;42426;46.104;19.656;2023-05-29T08:18:26;7.68;;;5.78;;
56122;SDS011;42426;46.104;19.656;2023-05-29T08:20:52;7.68;;;5.85;;
56122;SDS011;42426;46.104;19.656;2023-05-29T08:23:18;12.02;;;5.40;;
56122;SDS011;42426;46.104;19.656;2023-05-29T08:25:44;11.40;;;5.78;;
56122;SDS011;42426;46.104;19.656;2023-05-29T08:28:10;7.63;;;5.43;;
56122;SDS011;42426;46.104;19.656;2023-05-29T08:30:36;6.72;;;5.97;;
56122;SDS011;42426;46.104;19.656;2023-05-29T08:33:04;6.65;;;5.95;;
56122;SDS011;42426;46.104;19.656;2023-05-29T08:35:30;9.88;;;5.78;;
56122;SDS011;42426;46.104;19.656;2023-05-29T08:37:57;9.73;;;5.35;;
56122;SDS011;42426;46.104;19.656;2023-05-29T08:40:23;7.15;;;5.40;;
56122;SDS011;42426;46.104;19.656;2023-05-29T08:45:24;10.52;;;5.72;;
56122;SDS011;42426;46.104;19.656;2023-05-29T08:47:53;8.18;;;5.50;;
56122;SDS011;42426;46.104;19.656;2023-05-29T08:50:20;6.50;;;5.20;;
56122;SDS011;42426;46.104;19.656;2023-05-29T08:52:46;7.05;;;6.30;;
56122;SDS011;42426;46.104;19.656;2023-05-29T08:55:13;8.75;;;6.68;;
56122;SDS011;42426;46.104;19.656;2023-05-29T08:57:39;8.35;;;6.93;;
56122;SDS011;42426;46.104;19.656;2023-05-29T09:00:08;9.20;;;6.05;;
56122;SDS011;42426;46.104;19.656;2023-05-29T09:02:41;7.60;;;6.05;;
56122;SDS011;42426;46.104;19.656;2023-05-29T09:05:10;9.10;;;6.63;;
56122;SDS011;42426;46.104;19.656;2023-05-29T09:07:38;9.85;;;6.22;;
56122;SDS011;42426;46.104;19.656;2023-05-29T09:10:05;15.27;;;6.53;;
56122;SDS011;42426;46.104;19.656;2023-05-29T09:12:32;12.68;;;7.85;;
56122;SDS011;42426;46.104;19.656;2023-05-29T09:14:58;7.97;;;5.97;;
56122;SDS011;42426;46.104;19.656;2023-05-29T09:17:24;11.13;;;5.95;;
56122;SDS011;42426;46.104;19.656;2023-05-29T09:19:56;12.75;;;6.07;;
56122;SDS011;42426;46.104;19.656;2023-05-29T09:22:22;7.85;;;6.47;;
56122;SDS011;42426;46.104;19.656;2023-05-29T09:24:48;8.85;;;6.60;;
56122;SDS011;42426;46.104;19.656;2023-05-29T09:27:15;12.73;;;6.15;;
56122;SDS011;42426;46.104;19.656;2023-05-29T09:29:43;7.53;;;6.32;;
56122;SDS011;42426;46.104;19.656;2023-05-29T09:32:12;8.93;;;6.38;;
56122;SDS011;42426;46.104;19.656;2023-05-29T09:34:41;12.00;;;6.45;;
56122;SDS011;42426;46.104;19.656;2023-05-29T09:37:10;9.48;;;6.07;;
56122;SDS011;42426;46.104;19.656;2023-05-29T09:39:47;15.07;;;6.63;;
56122;SDS011;42426;46.104;19.656;2023-05-29T09:42:13;8.15;;;6.55;;
56122;SDS011;42426;46.104;19.656;2023-05-29T09:44:41;8.32;;;6.55;;
56122;SDS011;42426;46.104;19.656;2023-05-29T09:47:07;7.43;;;6.03;;
56122;SDS011;42426;46.104;19.656;2023-05-29T09:49:33;9.80;;;6.32;;
56122;SDS011;42426;46.104;19.656;2023-05-29T09:51:59;7.95;;;5.90;;
56122;SDS011;42426;46.104;19.656;2023-05-29T09:54:28;9.20;;;6.40;;
56122;SDS011;42426;46.104;19.656;2023-05-29T09:56:55;8.35;;;6.00;;
56122;SDS011;42426;46.104;19.656;2023-05-29T09:59:21;7.10;;;6.03;;
56122;SDS011;42426;46.104;19.656;2023-05-29T10:01:49;8.52;;;6.60;;
56122;SDS011;42426;46.104;19.656;2023-05-29T10:04:20;9.35;;;6.40;;
56122;SDS011;42426;46.104;19.656;2023-05-29T10:06:46;6.82;;;5.88;;
56122;SDS011;42426;46.104;19.656;2023-05-29T10:09:14;6.72;;;5.60;;
56122;SDS011;42426;46.104;19.656;2023-05-29T10:11:42;9.23;;;6.35;;
56122;SDS011;42426;46.104;19.656;2023-05-29T10:14:09;7.38;;;5.72;;
56122;SDS011;42426;46.104;19.656;2023-05-29T10:16:38;9.38;;;5.60;;
56122;SDS011;42426;46.104;19.656;2023-05-29T10:19:06;6.95;;;5.50;;
56122;SDS011;42426;46.104;19.656;2023-05-29T10:21:36;8.27;;;6.38;;
56122;SDS011;42426;46.104;19.656;2023-05-29T10:24:04;7.07;;;5.78;;
56122;SDS011;42426;46.104;19.656;2023-05-29T10:26:31;6.95;;;5.88;;
56122;SDS011;42426;46.104;19.656;2023-05-29T10:29:14;7.95;;;5.88;;
56122;SDS011;42426;46.104;19.656;2023-05-29T10:32:04;10.95;;;6.32;;
56122;SDS011;42426;46.104;19.656;2023-05-29T10:34:43;6.60;;;5.82;;
56122;SDS011;42426;46.104;19.656;2023-05-29T10:40:09;40.25;;;9.43;;
56122;SDS011;42426;46.104;19.656;2023-05-29T10:42:49;27.80;;;8.50;;
56122;SDS011;42426;46.104;19.656;2023-05-29T10:48:35;10.55;;;7.10;;
56122;SDS011;42426;46.104;19.656;2023-05-29T10:50:42;12.80;;;6.72;;
56122;SDS011;42426;46.104;19.656;2023-05-29T10:53:13;10.02;;;6.55;;
56122;SDS011;42426;46.104;19.656;2023-05-29T10:55:42;19.88;;;7.20;;
56122;SDS011;42426;46.104;19.656;2023-05-29T10:58:13;12.27;;;6.70;;
56122;SDS011;42426;46.104;19.656;2023-05-29T11:00:52;6.88;;;5.80;;
56122;SDS011;42426;46.104;19.656;2023-05-29T11:03:22;7.13;;;6.15;;
56122;SDS011;42426;46.104;19.656;2023-05-29T11:06:01;9.10;;;6.75;;
56122;SDS011;42426;46.104;19.656;2023-05-29T11:08:45;16.00;;;10.00;;
56122;SDS011;42426;46.104;19.656;2023-05-29T11:11:15;13.88;;;8.73;;
56122;SDS011;42426;46.104;19.656;2023-05-29T11:13:54;8.80;;;7.05;;
56122;SDS011;42426;46.104;19.656;2023-05-29T11:18:51;8.13;;;7.10;;
56122;SDS011;42426;46.104;19.656;2023-05-29T11:24:27;8.55;;;6.40;;
56122;SDS011;42426;46.104;19.656;2023-05-29T11:26:55;14.90;;;7.20;;
56122;SDS011;42426;46.104;19.656;2023-05-29T11:29:23;9.52;;;6.55;;
56122;SDS011;42426;46.104;19.656;2023-05-29T11:31:57;9.27;;;6.90;;
56122;SDS011;42426;46.104;19.656;2023-05-29T11:34:27;9.20;;;7.10;;
56122;SDS011;42426;46.104;19.656;2023-05-29T11:36:56;8.10;;;6.78;;
56122;SDS011;42426;46.104;19.656;2023-05-29T11:39:23;9.48;;;6.63;;
56122;SDS011;42426;46.104;19.656;2023-05-29T11:41:50;7.38;;;6.60;;
56122;SDS011;42426;46.104;19.656;2023-05-29T11:44:16;8.60;;;6.25;;
56122;SDS011;42426;46.104;19.656;2023-05-29T11:46:42;10.05;;;7.18;;
56122;SDS011;42426;46.104;19.656;2023-05-29T11:49:08;9.85;;;6.40;;
56122;SDS011;42426;46.104;19.656;2023-05-29T11:51:34;7.93;;;6.63;;
56122;SDS011;42426;46.104;19.656;2023-05-29T11:54:00;7.50;;;6.70;;
56122;SDS011;42426;46.104;19.656;2023-05-29T11:56:26;9.68;;;6.43;;
56122;SDS011;42426;46.104;19.656;2023-05-29T11:58:52;7.38;;;6.60;;
56122;SDS011;42426;46.104;19.656;2023-05-29T12:01:26;9.05;;;6.13;;
56122;SDS011;42426;46.104;19.656;2023-05-29T12:03:53;6.97;;;6.30;;
56122;SDS011;42426;46.104;19.656;2023-05-29T12:06:33;8.15;;;6.43;;
56122;SDS011;42426;46.104;19.656;2023-05-29T12:09:00;7.32;;;6.50;;
56122;SDS011;42426;46.104;19.656;2023-05-29T12:11:27;9.50;;;7.38;;
56122;SDS011;42426;46.104;19.656;2023-05-29T12:13:57;18.02;;;7.88;;
56122;SDS011;42426;46.104;19.656;2023-05-29T12:16:24;9.90;;;8.00;;
56122;SDS011;42426;46.104;19.656;2023-05-29T12:18:52;8.32;;;6.97;;
56122;SDS011;42426;46.104;19.656;2023-05-29T12:21:19;7.82;;;6.55;;
56122;SDS011;42426;46.104;19.656;2023-05-29T12:23:46;8.00;;;7.15;;
56122;SDS011;42426;46.104;19.656;2023-05-29T12:26:12;10.55;;;7.35;;
56122;SDS011;42426;46.104;19.656;2023-05-29T12:28:47;9.75;;;8.10;;
56122;SDS011;42426;46.104;19.656;2023-05-29T12:31:25;10.68;;;8.10;;
56122;SDS011;42426;46.104;19.656;2023-05-29T12:33:59;8.48;;;7.53;;
56122;SDS011;42426;46.104;19.656;2023-05-29T12:36:33;9.15;;;7.97;;
56122;SDS011;42426;46.104;19.656;2023-05-29T12:38:58;9.30;;;7.72;;
56122;SDS011;42426;46.104;19.656;2023-05-29T12:43:56;19.40;;;8.50;;
56122;SDS011;42426;46.104;19.656;2023-05-29T12:46:23;9.85;;;8.80;;
56122;SDS011;42426;46.104;19.656;2023-05-29T12:48:53;12.85;;;9.13;;
56122;SDS011;42426;46.104;19.656;2023-05-29T12:51:23;11.73;;;9.18;;
56122;SDS011;42426;46.104;19.656;2023-05-29T12:53:49;9.25;;;8.20;;
56122;SDS011;42426;46.104;19.656;2023-05-29T12:56:15;9.15;;;8.05;;
56122;SDS011;42426;46.104;19.656;2023-05-29T12:58:41;14.77;;;9.10;;
56122;SDS011;42426;46.104;19.656;2023-05-29T13:01:11;11.63;;;8.63;;
56122;SDS011;42426;46.104;19.656;2023-05-29T13:03:39;8.50;;;7.60;;
56122;SDS011;42426;46.104;19.656;2023-05-29T13:06:04;9.55;;;8.18;;
56122;SDS011;42426;46.104;19.656;2023-05-29T13:08:31;9.93;;;8.00;;
56122;SDS011;42426;46.104;19.656;2023-05-29T13:10:56;11.50;;;8.50;;
56122;SDS011;42426;46.104;19.656;2023-05-29T13:13:22;15.48;;;9.43;;
56122;SDS011;42426;46.104;19.656;2023-05-29T13:15:48;12.23;;;8.80;;
56122;SDS011;42426;46.104;19.656;2023-05-29T13:18:13;15.68;;;8.95;;
56122;SDS011;42426;46.104;19.656;2023-05-29T13:20:39;14.27;;;9.50;;
56122;SDS011;42426;46.104;19.656;2023-05-29T13:23:05;12.80;;;8.63;;
56122;SDS011;42426;46.104;19.656;2023-05-29T13:25:32;12.85;;;9.32;;
56122;SDS011;42426;46.104;19.656;2023-05-29T13:27:57;12.07;;;9.00;;
56122;SDS011;42426;46.104;19.656;2023-05-29T13:30:23;11.45;;;9.02;;
56122;SDS011;42426;46.104;19.656;2023-05-29T13:32:50;11.18;;;8.95;;
56122;SDS011;42426;46.104;19.656;2023-05-29T13:35:16;11.27;;;8.52;;
56122;SDS011;42426;46.104;19.656;2023-05-29T13:37:42;11.90;;;9.40;;
56122;SDS011;42426;46.104;19.656;2023-05-29T13:40:10;15.52;;;9.07;;
56122;SDS011;42426;46.104;19.656;2023-05-29T13:42:37;12.27;;;8.93;;
56122;SDS011;42426;46.104;19.656;2023-05-29T13:45:04;13.73;;;9.23;;
56122;SDS011;42426;46.104;19.656;2023-05-29T13:47:31;13.55;;;9.57;;
56122;SDS011;42426;46.104;19.656;2023-05-29T13:49:57;15.70;;;10.25;;
56122;SDS011;42426;46.104;19.656;2023-05-29T13:52:23;14.88;;;9.45;;
56122;SDS011;42426;46.104;19.656;2023-05-29T13:54:49;14.98;;;10.50;;
56122;SDS011;42426;46.104;19.656;2023-05-29T13:57:15;13.95;;;9.40;;
56122;SDS011;42426;46.104;19.656;2023-05-29T13:59:41;14.55;;;10.10;;
56122;SDS011;42426;46.104;19.656;2023-05-29T14:02:06;13.80;;;10.05;;
56122;SDS011;42426;46.104;19.656;2023-05-29T14:04:33;13.15;;;9.98;;
56122;SDS011;42426;46.104;19.656;2023-05-29T14:06:59;11.95;;;10.18;;
56122;SDS011;42426;46.104;19.656;2023-05-29T14:09:25;11.77;;;9.27;;
56122;SDS011;42426;46.104;19.656;2023-05-29T14:11:54;11.27;;;9.70;;
56122;SDS011;42426;46.104;19.656;2023-05-29T14:14:21;10.60;;;9.50;;
56122;SDS011;42426;46.104;19.656;2023-05-29T14:16:48;12.52;;;10.23;;
56122;SDS011;42426;46.104;19.656;2023-05-29T14:19:14;13.48;;;10.70;;
56122;SDS011;42426;46.104;19.656;2023-05-29T14:21:40;13.68;;;10.82;;
56122;SDS011;42426;46.104;19.656;2023-05-29T14:24:08;12.30;;;9.15;;
56122;SDS011;42426;46.104;19.656;2023-05-29T14:26:35;11.60;;;9.55;;
56122;SDS011;42426;46.104;19.656;2023-05-29T14:29:01;9.93;;;8.50;;
56122;SDS011;42426;46.104;19.656;2023-05-29T14:31:27;11.57;;;8.95;;
56122;SDS011;42426;46.104;19.656;2023-05-29T14:33:53;10.05;;;8.98;;
56122;SDS011;42426;46.104;19.656;2023-05-29T14:36:19;12.50;;;9.75;;
56122;SDS011;42426;46.104;19.656;2023-05-29T14:38:44;13.07;;;8.68;;
56122;SDS011;42426;46.104;19.656;2023-05-29T14:41:11;10.27;;;8.80;;
56122;SDS011;42426;46.104;19.656;2023-05-29T14:43:41;10.30;;;9.20;;
56122;SDS011;42426;46.104;19.656;2023-05-29T14:46:07;10.13;;;9.10;;
56122;SDS011;42426;46.104;19.656;2023-05-29T14:48:33;12.07;;;8.88;;
56122;SDS011;42426;46.104;19.656;2023-05-29T14:50:59;11.38;;;9.75;;
56122;SDS011;42426;46.104;19.656;2023-05-29T14:53:25;15.75;;;10.95;;
56122;SDS011;42426;46.104;19.656;2023-05-29T14:55:51;13.80;;;11.02;;